createdAt,value
2019-02-23T00:00:41.422Z,2.00
2019-02-23T00:06:29.728Z,1.90
2019-02-23T00:08:56.579Z,1.90
2019-02-23T00:11:28.751Z,2.00
2019-02-23T00:13:59.548Z,2.00
2019-02-23T00:16:30.843Z,2.00
2019-02-23T00:19:02.415Z,2.00
2019-02-23T00:21:36.237Z,2.00
2019-02-23T00:24:08.156Z,1.90
2019-02-23T00:26:39.301Z,2.00
2019-02-23T00:29:11.056Z,1.90
2019-02-23T00:31:42.883Z,1.90
2019-02-23T00:34:14.331Z,1.90
2019-02-23T00:36:46.674Z,1.90
2019-02-23T00:39:18.021Z,1.80
2019-02-23T00:41:52.457Z,1.80
2019-02-23T00:44:26.487Z,1.80
2019-02-23T00:46:57.755Z,1.90
2019-02-23T00:49:36.267Z,1.80
2019-02-23T00:52:02.591Z,1.70
2019-02-23T00:54:34.972Z,1.80
2019-02-23T00:57:06.094Z,1.80
2019-02-23T00:59:37.804Z,1.80
2019-02-23T01:02:12.044Z,1.90
2019-02-23T01:04:45.374Z,1.90
2019-02-23T01:07:17.734Z,1.90
2019-02-23T01:09:49.843Z,1.80
2019-02-23T01:12:23.692Z,1.70
2019-02-23T01:14:56.400Z,1.70
2019-02-23T01:17:29.919Z,1.60
2019-02-23T01:20:05.610Z,1.50
2019-02-23T01:22:41.298Z,1.50
2019-02-23T01:25:16.504Z,1.40
2019-02-23T01:27:49.814Z,1.40
2019-02-23T01:30:23.283Z,1.50
2019-02-23T01:32:57.201Z,1.50
2019-02-23T01:35:31.984Z,1.60
2019-02-23T01:38:07.047Z,1.50
2019-02-23T01:40:39.896Z,1.50
2019-02-23T01:43:12.212Z,1.40
2019-02-23T01:45:45.016Z,1.40
2019-02-23T01:48:18.330Z,1.50
2019-02-23T01:50:49.674Z,1.50
2019-02-23T01:53:20.960Z,1.40
2019-02-23T01:55:52.456Z,1.50
2019-02-23T01:58:24.106Z,1.50
2019-02-23T02:00:57.422Z,1.50
2019-02-23T02:03:30.284Z,1.40
2019-02-23T02:06:03.849Z,1.40
2019-02-23T02:08:35.510Z,1.50
2019-02-23T02:11:08.377Z,1.40
2019-02-23T02:13:41.316Z,1.40
2019-02-23T02:16:13.429Z,1.40
2019-02-23T02:18:46.231Z,1.30
2019-02-23T02:21:18.675Z,1.30
2019-02-23T02:23:50.354Z,1.20
2019-02-23T02:26:23.102Z,1.30
2019-02-23T02:28:55.491Z,1.40
2019-02-23T02:31:29.303Z,1.40
2019-02-23T02:34:07.632Z,1.40
2019-02-23T02:36:41.745Z,1.30
2019-02-23T02:39:18.800Z,1.40
2019-02-23T02:41:52.468Z,1.30
2019-02-23T02:44:31.788Z,1.30
2019-02-23T02:47:08.654Z,1.40
2019-02-23T02:49:41.309Z,1.30
2019-02-23T02:52:12.282Z,1.30
2019-02-23T02:54:45.211Z,1.30
2019-02-23T02:57:18.086Z,1.30
2019-02-23T02:59:52.612Z,1.30
2019-02-23T03:02:24.594Z,1.30
2019-02-23T03:04:59.124Z,1.30
2019-02-23T03:07:33.049Z,1.30
2019-02-23T03:10:07.917Z,1.20
2019-02-23T03:12:41.431Z,1.20
2019-02-23T03:15:16.406Z,1.10
2019-02-23T03:17:51.577Z,1.10
2019-02-23T03:20:35.942Z,1.00
2019-02-23T03:22:58.568Z,1.10
2019-02-23T03:25:30.452Z,1.10
2019-02-23T03:28:02.921Z,1.10
2019-02-23T03:30:34.481Z,1.00
2019-02-23T03:33:10.107Z,1.00
2019-02-23T03:35:42.456Z,0.90
2019-02-23T03:38:15.369Z,0.90
2019-02-23T03:40:47.416Z,0.90
2019-02-23T03:43:18.483Z,1.00
2019-02-23T03:45:49.889Z,1.00
2019-02-23T03:48:22.251Z,1.00
2019-02-23T03:50:53.762Z,1.00
2019-02-23T03:53:26.151Z,0.90
2019-02-23T03:55:57.756Z,0.90
2019-02-23T03:58:30.856Z,0.90
2019-02-23T04:01:01.821Z,0.90
2019-02-23T04:03:33.979Z,0.90
2019-02-23T04:06:05.997Z,0.90
2019-02-23T04:08:38.064Z,1.00
2019-02-23T04:11:09.299Z,1.00
2019-02-23T04:13:42.353Z,0.90
2019-02-23T04:16:15.202Z,0.90
2019-02-23T04:18:47.464Z,1.00
2019-02-23T04:21:19.954Z,1.10
2019-02-23T04:23:51.777Z,1.10
2019-02-23T04:26:23.806Z,0.90
2019-02-23T04:28:55.965Z,0.90
2019-02-23T04:31:28.805Z,0.80
2019-02-23T04:34:00.874Z,0.80
2019-02-23T04:36:33.329Z,0.80
2019-02-23T04:39:05.908Z,0.80
2019-02-23T04:41:37.564Z,0.90
2019-02-23T04:44:09.629Z,0.80
2019-02-23T04:46:41.203Z,0.90
2019-02-23T04:49:12.792Z,0.90
2019-02-23T04:51:44.070Z,0.90
2019-02-23T04:54:16.470Z,1.00
2019-02-23T04:56:48.490Z,0.90
2019-02-23T04:59:21.870Z,0.90
2019-02-23T05:01:53.598Z,0.90
2019-02-23T05:04:25.044Z,0.80
2019-02-23T05:06:56.229Z,0.80
2019-02-23T05:09:28.574Z,0.80
2019-02-23T05:12:00.305Z,0.80
2019-02-23T05:14:32.357Z,0.80
2019-02-23T05:17:04.050Z,0.80
2019-02-23T05:19:37.025Z,0.90
2019-02-23T05:22:07.915Z,0.90
2019-02-23T05:24:40.233Z,0.90
2019-02-23T05:27:11.144Z,0.90
2019-02-23T05:29:43.179Z,0.90
2019-02-23T05:32:14.477Z,0.90
2019-02-23T05:34:46.184Z,0.90
2019-02-23T05:37:17.649Z,0.90
2019-02-23T05:39:49.453Z,0.80
2019-02-23T05:42:22.876Z,0.90
2019-02-23T05:44:53.534Z,0.90
2019-02-23T05:47:25.209Z,0.90
2019-02-23T05:49:56.236Z,0.90
2019-02-23T05:52:28.835Z,0.80
2019-02-23T05:55:00.641Z,0.70
2019-02-23T05:57:32.309Z,0.80
2019-02-23T06:00:03.487Z,0.80
2019-02-23T06:02:34.600Z,0.80
2019-02-23T06:05:06.161Z,0.80
2019-02-23T06:07:37.388Z,0.80
2019-02-23T06:10:10.114Z,0.70
2019-02-23T06:12:41.163Z,0.70
2019-02-23T06:15:13.138Z,0.70
2019-02-23T06:17:45.381Z,0.70
2019-02-23T06:20:16.347Z,0.70
2019-02-23T06:22:48.271Z,0.70
2019-02-23T06:25:21.158Z,0.70
2019-02-23T06:27:53.148Z,0.70
2019-02-23T06:30:26.796Z,0.80
2019-02-23T06:32:59.626Z,0.80
2019-02-23T06:35:31.999Z,0.80
2019-02-23T06:38:05.019Z,0.80
2019-02-23T06:44:45.166Z,0.80
2019-02-23T06:47:18.003Z,0.90
2019-02-23T06:49:50.451Z,0.90
2019-02-23T06:52:22.214Z,0.80
2019-02-23T06:54:53.807Z,0.90
2019-02-23T06:57:24.988Z,0.90
2019-02-23T07:02:48.421Z,1.00
2019-02-23T07:05:23.087Z,1.00
2019-02-23T07:07:56.262Z,1.00
2019-02-23T07:14:08.980Z,1.10
2019-02-23T07:16:45.168Z,1.20
2019-02-23T07:19:19.939Z,1.20
2019-02-23T07:22:01.652Z,1.20
2019-02-23T07:24:33.368Z,1.30
2019-02-23T07:27:21.237Z,1.40
2019-02-23T07:29:54.019Z,1.50
2019-02-23T07:32:25.440Z,1.40
2019-02-23T07:34:56.867Z,1.40
2019-02-23T07:37:35.587Z,1.50
2019-02-23T07:40:18.932Z,1.70
2019-02-23T07:42:53.586Z,1.70
2019-02-23T07:45:39.933Z,1.80
2019-02-23T07:51:54.662Z,1.80
2019-02-23T07:54:26.925Z,1.80
2019-02-23T07:57:00.539Z,1.90
2019-02-23T08:00:01.718Z,1.90
2019-02-23T08:02:45.176Z,2.00
2019-02-23T08:05:16.115Z,2.00
2019-02-23T08:07:51.673Z,2.10
2019-02-23T08:10:39.617Z,2.10
2019-02-23T08:13:11.678Z,2.20
2019-02-23T08:15:44.844Z,2.20
2019-02-23T08:18:16.726Z,2.10
2019-02-23T08:20:50.547Z,2.20
2019-02-23T08:23:23.499Z,2.30
2019-02-23T08:25:56.089Z,2.30
2019-02-23T08:28:27.160Z,2.20
2019-02-23T08:30:59.536Z,2.30
2019-02-23T08:33:30.644Z,2.40
2019-02-23T08:36:02.610Z,2.50
2019-02-23T08:38:34.441Z,2.60
2019-02-23T08:41:06.571Z,2.70
2019-02-23T08:43:38.446Z,2.80
2019-02-23T08:46:09.042Z,2.90
2019-02-23T08:48:40.505Z,3.00
2019-02-23T08:51:12.268Z,3.20
2019-02-23T08:53:44.179Z,3.50
2019-02-23T08:56:16.368Z,3.70
2019-02-23T08:58:48.160Z,3.90
2019-02-23T09:01:19.191Z,4.10
2019-02-23T09:03:49.890Z,4.00
2019-02-23T09:06:20.933Z,4.00
2019-02-23T09:08:51.278Z,4.20
2019-02-23T09:11:22.185Z,4.40
2019-02-23T09:13:52.748Z,4.40
2019-02-23T09:16:23.185Z,4.50
2019-02-23T09:18:54.185Z,4.50
2019-02-23T09:21:24.949Z,4.50
2019-02-23T09:23:55.919Z,4.50
2019-02-23T09:26:26.673Z,4.30
2019-02-23T09:28:57.482Z,4.40
2019-02-23T09:31:28.625Z,4.40
2019-02-23T09:33:59.226Z,4.50
2019-02-23T09:36:30.008Z,4.50
2019-02-23T09:39:00.526Z,4.60
2019-02-23T09:41:32.737Z,4.40
2019-02-23T09:44:03.062Z,4.40
2019-02-23T09:46:33.577Z,4.50
2019-02-23T09:49:04.480Z,4.50
2019-02-23T09:51:35.015Z,4.70
2019-02-23T09:54:05.578Z,4.90
2019-02-23T09:56:35.959Z,4.90
2019-02-23T09:59:06.964Z,5.00
2019-02-23T10:01:37.312Z,5.00
2019-02-23T10:04:08.013Z,5.20
2019-02-23T10:26:49.072Z,5.80
2019-02-23T10:29:20.502Z,5.70
2019-02-23T10:31:51.440Z,5.60
2019-02-23T10:34:23.120Z,5.60
2019-02-23T10:36:55.115Z,5.60
2019-02-23T10:39:33.953Z,5.70
2019-02-23T10:42:41.994Z,5.80
2019-02-23T10:45:14.813Z,5.90
2019-02-23T10:47:47.055Z,5.80
2019-02-23T10:50:18.377Z,5.70
2019-02-23T10:52:51.046Z,5.60
2019-02-23T10:55:22.114Z,5.60
2019-02-23T10:57:53.144Z,5.70
2019-02-23T11:00:24.853Z,5.80
2019-02-23T11:03:03.224Z,5.90
2019-02-23T11:05:47.005Z,6.00
2019-02-23T11:08:23.706Z,5.90
2019-02-23T11:11:09.349Z,6.00
2019-02-23T11:14:11.876Z,6.00
2019-02-23T11:16:46.263Z,6.00
2019-02-23T11:19:23.342Z,6.20
2019-02-23T11:22:09.046Z,6.30
2019-02-23T11:24:41.182Z,6.50
2019-02-23T11:27:14.127Z,6.60
2019-02-23T11:29:50.363Z,6.70
2019-02-23T11:32:21.305Z,6.90
2019-02-23T11:34:53.217Z,7.00
2019-02-23T11:37:25.977Z,7.20
2019-02-23T11:39:58.071Z,6.90
2019-02-23T11:42:30.118Z,6.70
2019-02-23T11:45:01.749Z,6.60
2019-02-23T11:47:33.919Z,6.70
2019-02-23T11:50:08.615Z,6.80
2019-02-23T11:52:40.985Z,7.00
2019-02-23T11:55:12.601Z,7.20
2019-02-23T11:57:43.507Z,7.40
2019-02-23T12:00:15.250Z,7.40
2019-02-23T12:02:52.827Z,7.50
2019-02-23T12:05:22.248Z,7.40
2019-02-23T12:07:55.335Z,7.50
2019-02-23T12:10:28.634Z,7.50
2019-02-23T12:13:04.097Z,7.60
2019-02-23T12:15:37.326Z,7.40
2019-02-23T12:18:09.832Z,7.20
2019-02-23T12:20:42.629Z,7.30
2019-02-23T12:23:14.425Z,7.50
2019-02-23T12:25:47.342Z,7.40
2019-02-23T12:28:19.422Z,7.20
2019-02-23T12:30:51.672Z,7.20
2019-02-23T12:33:23.720Z,7.30
2019-02-23T12:35:55.875Z,7.20
2019-02-23T12:38:28.505Z,7.30
2019-02-23T12:40:59.794Z,7.50
2019-02-23T12:43:31.265Z,7.60
2019-02-23T12:46:04.962Z,7.70
2019-02-23T12:48:36.529Z,7.80
2019-02-23T12:51:08.659Z,7.90
2019-02-23T12:53:41.213Z,8.00
2019-02-23T12:56:12.186Z,8.10
2019-02-23T12:58:44.534Z,8.10
2019-02-23T13:01:19.489Z,8.30
2019-02-23T13:07:30.011Z,7.80
2019-02-23T13:10:03.008Z,7.80
2019-02-23T13:12:58.813Z,7.90
2019-02-23T13:15:49.149Z,8.10
2019-02-23T13:18:54.048Z,7.90
2019-02-23T13:21:38.981Z,8.00
2019-02-23T13:24:13.396Z,8.00
2019-02-23T13:27:00.399Z,8.00
2019-02-23T13:29:52.342Z,8.00
2019-02-23T13:32:34.033Z,7.90
2019-02-23T13:35:11.334Z,7.90
2019-02-23T13:37:51.472Z,7.90
2019-02-23T13:40:45.200Z,7.90
2019-02-23T13:43:32.115Z,7.90
2019-02-23T13:46:28.374Z,7.80
2019-02-23T13:49:36.287Z,7.60
2019-02-23T13:52:39.877Z,7.60
2019-02-23T13:55:30.402Z,7.50
2019-02-23T13:58:05.010Z,7.40
2019-02-23T14:00:55.665Z,7.40
2019-02-23T14:03:32.646Z,7.40
2019-02-23T14:06:07.223Z,7.60
2019-02-23T14:08:56.835Z,7.60
2019-02-23T14:11:34.690Z,7.70
2019-02-23T14:14:17.258Z,7.60
2019-02-23T14:17:03.821Z,7.70
2019-02-23T14:19:57.947Z,7.70
2019-02-23T14:26:39.329Z,7.70
2019-02-23T14:32:31.429Z,7.70
2019-02-23T14:35:08.784Z,7.70
2019-02-23T14:37:47.091Z,7.70
2019-02-23T14:40:38.178Z,7.70
2019-02-23T14:43:28.385Z,7.60
2019-02-23T14:46:30.628Z,7.50
2019-02-23T14:49:16.349Z,7.50
2019-02-23T14:51:57.860Z,7.60
2019-02-23T14:55:01.279Z,7.60
2019-02-23T14:57:43.946Z,7.50
2019-02-23T15:00:28.174Z,7.50
2019-02-23T15:03:31.195Z,7.60
2019-02-23T15:06:33.803Z,7.60
2019-02-23T15:09:23.064Z,7.60
2019-02-23T15:15:41.315Z,7.70
2019-02-23T15:18:32.846Z,7.60
2019-02-23T15:21:20.132Z,7.60
2019-02-23T15:24:17.614Z,7.50
2019-02-23T15:26:56.302Z,7.50
2019-02-23T15:29:49.303Z,7.40
2019-02-23T15:32:43.846Z,7.30
2019-02-23T15:35:23.557Z,7.40
2019-02-23T15:51:33.057Z,7.20
2019-02-23T15:54:05.513Z,7.20
2019-02-23T15:56:38.092Z,7.20
2019-02-23T15:59:10.717Z,7.20
2019-02-23T16:01:44.471Z,7.20
2019-02-23T16:04:17.643Z,7.20
2019-02-23T16:10:07.198Z,7.00
2019-02-23T16:12:39.794Z,6.90
2019-02-23T16:15:12.391Z,6.90
2019-02-23T16:17:43.391Z,6.90
2019-02-23T16:20:14.628Z,6.90
2019-02-23T16:22:46.490Z,6.90
2019-02-23T16:25:17.332Z,6.80
2019-02-23T16:27:47.765Z,6.80
2019-02-23T16:30:20.314Z,6.70
2019-02-23T16:32:52.452Z,6.70
2019-02-23T16:38:58.193Z,6.60
2019-02-23T16:41:29.650Z,6.50
2019-02-23T16:44:00.985Z,6.40
2019-02-23T16:46:33.545Z,6.30
2019-02-23T16:49:05.287Z,6.30
2019-02-23T16:51:36.233Z,6.20
2019-02-23T16:54:07.016Z,6.20
2019-02-23T16:56:38.159Z,6.20
2019-02-23T16:59:10.007Z,6.10
2019-02-23T17:01:42.520Z,6.00
2019-02-23T17:04:13.686Z,5.90
2019-02-23T17:06:45.210Z,5.80
2019-02-23T17:09:16.339Z,5.80
2019-02-23T17:12:14.310Z,5.80
2019-02-23T17:14:46.311Z,5.70
2019-02-23T17:17:17.997Z,5.60
2019-02-23T17:19:49.575Z,5.60
2019-02-23T17:22:21.878Z,5.50
2019-02-23T17:24:54.235Z,5.50
2019-02-23T17:27:35.922Z,5.40
2019-02-23T17:29:58.996Z,5.40
2019-02-23T17:32:30.884Z,5.50
2019-02-23T17:35:03.043Z,5.40
2019-02-23T17:37:34.314Z,5.30
2019-02-23T17:40:06.984Z,5.20
2019-02-23T17:42:39.344Z,5.20
2019-02-23T17:45:11.270Z,5.20
2019-02-23T17:47:42.708Z,5.20
2019-02-23T17:50:14.092Z,5.10
2019-02-23T17:52:45.595Z,5.10
2019-02-23T17:55:16.181Z,5.10
2019-02-23T17:57:46.502Z,5.10
2019-02-23T18:00:19.399Z,5.10
2019-02-23T18:02:50.804Z,5.10
2019-02-23T18:05:23.194Z,5.10
2019-02-23T18:07:55.582Z,5.20
2019-02-23T18:10:27.936Z,5.10
2019-02-23T18:12:59.498Z,5.20
2019-02-23T18:15:32.412Z,5.10
2019-02-23T18:18:03.127Z,5.10
2019-02-23T18:20:35.165Z,4.90
2019-02-23T18:23:07.448Z,4.90
2019-02-23T18:25:37.918Z,4.80
2019-02-23T18:28:09.962Z,5.00
2019-02-23T18:30:41.254Z,4.90
2019-02-23T18:33:12.663Z,4.80
2019-02-23T18:35:44.792Z,4.90
2019-02-23T18:38:18.678Z,4.80
2019-02-23T18:40:50.008Z,4.80
2019-02-23T18:43:21.467Z,4.80
2019-02-23T18:45:53.835Z,4.90
2019-02-23T18:48:27.281Z,5.00
2019-02-23T18:50:58.772Z,5.00
2019-02-23T18:53:29.938Z,5.00
2019-02-23T18:56:01.102Z,4.90
2019-02-23T18:58:32.714Z,4.90
2019-02-23T19:01:06.043Z,4.90
2019-02-23T19:03:38.095Z,4.90
2019-02-23T19:06:09.829Z,4.90
2019-02-23T19:08:42.986Z,4.90
2019-02-23T19:11:14.105Z,4.90
2019-02-23T19:16:29.690Z,4.80
2019-02-23T19:19:02.688Z,4.90
2019-02-23T19:21:34.796Z,4.80
2019-02-23T19:24:06.027Z,4.80
2019-02-23T19:26:38.496Z,4.80
2019-02-23T19:29:11.000Z,4.70
2019-02-23T19:31:42.755Z,4.70
2019-02-23T19:34:13.825Z,4.60
2019-02-23T19:36:45.721Z,4.70
2019-02-23T19:39:17.562Z,4.60
2019-02-23T19:46:00.302Z,4.60
2019-02-23T19:48:33.458Z,4.70
2019-02-23T19:51:07.954Z,4.60
2019-02-23T19:53:40.198Z,4.60
2019-02-23T19:56:12.275Z,4.60
2019-02-23T19:58:44.878Z,4.60
2019-02-23T20:01:17.752Z,4.60
2019-02-23T20:03:50.783Z,4.60
2019-02-23T20:06:22.403Z,4.50
2019-02-23T20:08:54.431Z,4.60
2019-02-23T20:11:26.065Z,4.50
2019-02-23T20:13:59.349Z,4.50
2019-02-23T20:16:32.148Z,4.50
2019-02-23T20:19:05.665Z,4.50
2019-02-23T20:21:37.608Z,4.40
2019-02-23T20:24:13.073Z,4.30
2019-02-23T20:26:46.093Z,4.30
2019-02-23T20:32:56.389Z,4.30
2019-02-23T20:35:29.863Z,4.30
2019-02-23T20:44:34.534Z,4.20
2019-02-23T20:47:06.488Z,4.10
2019-02-23T20:49:38.808Z,4.20
2019-02-23T20:52:11.013Z,4.10
2019-02-23T20:54:44.107Z,4.00
2019-02-23T20:57:16.800Z,4.00
2019-02-23T21:00:16.124Z,4.00
2019-02-23T21:03:12.210Z,4.00
2019-02-23T21:06:33.500Z,4.10
2019-02-23T21:09:08.391Z,4.00
2019-02-23T21:15:09.732Z,4.00
2019-02-23T21:17:41.376Z,4.00
2019-02-23T21:20:13.556Z,4.00
2019-02-23T21:22:46.638Z,3.90
2019-02-23T21:25:19.479Z,3.90
2019-02-23T21:27:51.492Z,4.00
2019-02-23T21:30:22.873Z,3.90
2019-02-23T21:32:56.693Z,3.80
2019-02-23T21:35:30.289Z,3.90
2019-02-23T21:38:02.161Z,3.90
2019-02-23T21:40:54.532Z,3.90
2019-02-23T21:43:33.515Z,3.80
2019-02-23T21:49:37.602Z,3.80
2019-02-23T21:55:49.206Z,3.70
2019-02-23T21:58:21.396Z,3.70
2019-02-23T22:00:52.765Z,3.70
2019-02-23T22:03:24.493Z,3.70
2019-02-23T22:05:55.876Z,3.70
2019-02-23T22:08:28.019Z,3.60
2019-02-23T22:10:59.280Z,3.60
2019-02-23T22:13:31.185Z,3.60
2019-02-23T22:16:04.389Z,3.60
2019-02-23T22:18:36.223Z,3.70
2019-02-23T22:27:42.176Z,3.50
2019-02-23T22:30:15.970Z,3.50
2019-02-23T22:32:47.235Z,3.40
2019-02-23T22:35:18.644Z,3.40
2019-02-23T22:37:51.306Z,3.40
2019-02-23T22:47:29.507Z,3.20
2019-02-23T22:56:22.286Z,3.00
2019-02-23T22:58:55.594Z,3.00
2019-02-23T23:01:28.216Z,2.90
2019-02-23T23:07:42.792Z,2.80
2019-02-23T23:14:07.226Z,2.70
2019-02-23T23:16:40.465Z,2.60
2019-02-23T23:32:00.908Z,2.70
2019-02-23T23:34:32.424Z,2.70
2019-02-23T23:37:03.895Z,2.70
2019-02-23T23:39:36.009Z,2.70
2019-02-23T23:42:08.260Z,2.60
2019-02-23T23:44:52.911Z,2.50
2019-02-23T23:50:34.824Z,2.60
2019-02-23T23:53:06.122Z,2.60
2019-02-23T23:55:37.412Z,2.70
2019-02-23T23:58:08.566Z,2.70
